This is the latest recevied weather packets stored in our database for station/object DH5DY-6. If no packets are shown the sender has not sent any weather packets the latest 10 day(s).
| Time | Temp. | Humidity | Pressure | Rain* | Wind** | Luminosity | Snow |
|---|---|---|---|---|---|---|---|
| 1788050453 | 18.33° C | 83% | 1008.6 hPa | 0 mm | - | 0 W/m² | - |
| 1788049853 | 18.33° C | 83% | 1008.6 hPa | 0 mm | - | 0 W/m² | - |
| 1788048653 | 18.33° C | 82% | 1008.9 hPa | 0 mm | - | 0 W/m² | - |
| 1788048053 | 18.33° C | 83% | 1009.1 hPa | 0 mm | - | 0 W/m² | - |
| 1788046990 | 17.78° C | 83% | 1009.3 hPa | 0 mm | - | 0 W/m² | - |
| 1788046853 | 17.78° C | 83% | 1009.3 hPa | 0 mm | - | 0 W/m² | - |
| 1788046254 | 17.78° C | 83% | 1009.3 hPa | 0 mm | - | 0 W/m² | - |
| 1788044452 | 18.33° C | 81% | 1009.3 hPa | 0 mm | - | 0 W/m² | - |
| 1788042652 | 18.33° C | 80% | 1009.2 hPa | 0 mm | - | 0 W/m² | - |
| 1788041452 | 18.33° C | 81% | 1009.2 hPa | 0 mm | - | 0 W/m² | - |
| 1788040852 | 18.33° C | 81% | 1009.3 hPa | 0 mm | - | 0 W/m² | - |
| 1788039652 | 18.33° C | 80% | 1009.4 hPa | 0 mm | - | 0 W/m² | - |
| 1788039052 | 18.89° C | 80% | 1009.3 hPa | 0 mm | - | 0 W/m² | - |
| 1788037852 | 18.33° C | 80% | 1009.5 hPa | 0 mm | - | 0 W/m² | - |
| 1788037252 | 18.33° C | 81% | 1009.3 hPa | 0 mm | - | 0 W/m² | - |
| 1788036052 | 17.78° C | 84% | 1009.5 hPa | 0 mm | - | 0 W/m² | - |
| 1788034252 | 17.78° C | 82% | 1009.7 hPa | 0 mm | - | 0 W/m² | - |
| 1788033651 | 17.78° C | 82% | 1009.7 hPa | 0 mm | - | 0 W/m² | - |
| 1788032451 | 17.22° C | 84% | 1009.8 hPa | 0 mm | - | 0 W/m² | - |
| 1788031851 | 17.22° C | 84% | 1009.9 hPa | 0 mm | - | 0 W/m² | - |
| 1788030651 | 17.78° C | 84% | 1009.9 hPa | 0 mm | - | 0 W/m² | - |
| 1788028851 | 18.89° C | 78% | 1010 hPa | 0 mm | - | 0 W/m² | - |
| 1788028326 | 18.89° C | 75% | 1009.8 hPa | 0 mm | - | 0 W/m² | - |
| 1788028251 | 18.89° C | 75% | 1009.8 hPa | 0 mm | - | 0 W/m² | - |
| 1788026450 | 19.44° C | 73% | 1010 hPa | 0 mm | - | 12 W/m² | - |
* Rain latest hour (hover to see other rain measurements)
** Current wind speed in m/s (hover to see current wind gust speed)